Monday, December 18, 2017, 12:54 PM GMT
Back to Local

CYYG, Charlottetown, P. E. I.

Location: , , Canada Lat: 46.283
Local Time: 12:54 PM GMT (12:54 GMT) Lon: -63.133
Time Zone: GMT Elev: 157 ft

Show me the last for .
Show Decoded

2017-12-18 12:00 METAR CYYG 181200Z CCA 26007KT 6SM -SHSN OVC014 M12/M15 A3012 RMK SC8 CNVCTV CLD
                 EMBDD SLP206 =
2017-12-18 11:00 METAR CYYG 181100Z 29011KT 12SM -SHSN OVC013 M12/M15 A3012 RMK SC8 CVCTV CLD
                 EMBD SLP205 =
2017-12-18 10:16 METAR CYYG 181016Z 26010G16KT 12SM -SHSN OVC014 M12/M15 A3011 RMK SC8 CVCTC CLD
                 EMBD SLP200 =
2017-12-18 10:00 METAR CYYG 181000Z 26011G18KT 12SM -SHSN OVC015 M12/M15 A3011 RMK SC8 CVCTV CLD
                 EMBD SLP201 =
2017-12-18 09:00 METAR CYYG 180900Z 26009KT 12SM -SHSN OVC015 M12/M15 A3009 RMK SC8 CVCTV CLD
                 EMBD SLP195 =
2017-12-18 08:00 METAR CYYG 180800Z 26010G18KT 10SM -SHSN OVC017 M11/M15 A3009 RMK SC8 CVCTV CLD
                 EMBD SLP195 =
2017-12-18 07:00 METAR CYYG 180700Z 27011KT 10SM -SHSN OVC017 M11/M15 A3009 RMK SC8 CVCTV CLD
                 EMBD SLP195 =
2017-12-18 06:00 METAR CYYG 180600Z 28009KT 10SM -SHSN OVC021 M11/M15 A3006 RMK SC8 CVCTV CLD
                 EMBD SLP186 =
2017-12-18 05:00 METAR CYYG 180500Z 28011KT 12SM -SHSN BKN028 M11/M15 A3005 RMK SC7 CVCTV CLD
                 EMBD SLP181 =
2017-12-18 04:00 METAR CYYG 180400Z 28012G18KT 10SM OVC028 M11/M15 A3006 RMK SC8 CVCTV CLD EMBD
                 SLP185 =
2017-12-18 03:00 METAR CYYG 180300Z 29014G21KT 10SM -SHSN OVC027 M11/M15 A3005 RMK SC8 CVCTV CLD
                 EMBD SLP181 =
2017-12-18 02:21 METAR CYYG 180221Z 28014G24KT 10SM -SHSN OVC028 M11/M15 A3004 RMK SC8 CVCTV CLD
                 EMBD SLP177 =
2017-12-18 02:00 METAR CYYG 180200Z 29011G20KT 12SM OVC027 M11/M14 A3003 RMK SC8 SLP176 =
2017-12-18 01:00 METAR CYYG 180100Z 30013G20KT 15SM OVC025 M10/M15 A3003 RMK SC8 SLP173 =
2017-12-18 00:00 METAR CYYG 180000Z 29013G23KT 15SM BKN024 M10/M15 A3001 RMK SC7 SLP168 =
2017-12-17 23:00 METAR CYYG 172300Z 30011G17KT 15SM BKN026 M10/M15 A3000 RMK SC6 SLP163 =
2017-12-17 22:00 METAR CYYG 172200Z 29013G18KT 15SM FEW025 FEW150 SCT250 M09/M15 A2998 RMK
                 SC1AC1CI2 SC TR SLP157 =
2017-12-17 21:00 METAR CYYG 172100Z 30008KT 15SM FEW025 FEW150 FEW250 M09/M15 A2997 RMK SC1AC1CI1
                 SC TR CI TR SLP154 =
2017-12-17 20:00 METAR CYYG 172000Z 28009G17KT 15SM FEW025 FEW240 M08/M14 A2995 RMK SC1CI1 SC TR
                 CI TR SLP147 =
2017-12-17 19:00 METAR CYYG 171900Z 30012G20KT 15SM FEW025 SCT250 M08/M14 A2993 RMK CU2CI1 SLP140
                 =
2017-12-17 18:27 METAR CYYG 171827Z 28011G17KT 15SM VCSH SCT024 BKN250 M08/M14 A2992 RMK CU4CI2
                 SLP139 =
2017-12-17 18:00 METAR CYYG 171800Z 30009G17KT 15SM -SHSN BKN022 BKN250 M09/M14 A2992 RMK CU5CI1
                 SLP136 =
2017-12-17 17:00 METAR CYYG 171700Z 29011G17KT 12SM -SHSN DRSN OVC020 M09/M14 A2990 RMK SC8 CU
                 EMBD SLP132 =
2017-12-17 16:00 METAR CYYG 171600Z 27013G19KT 12SM -SHSN DRSN OVC017 M09/M14 A2990 RMK SC8 CU
                 EMBD SLP131 =
2017-12-17 15:39 METAR CYYG 171539Z 28011G19KT 260V320 12SM -SHSN DRSN OVC016 M09/M14 A2989 RMK
                 SC8 CU EMBD VIS SW-W 5 SLP127 =
2017-12-17 15:00 METAR CYYG 171500Z 27014G19KT 10SM -SN DRSN OVC017 M10/M14 A2990 RMK SC8 SLP132
                 =
2017-12-17 14:00 METAR CYYG 171400Z 28011G21KT 5SM -SN DRSN OVC018 M10/M14 A2990 RMK SC8 SLP130 =
2017-12-17 13:00 METAR CYYG 171300Z 30009G18KT 15SM -SN OVC017 M11/M14 A2988 RMK SC8 SLP124 =

Support USWX by starting your Amazon purchase here.